Time;durP1;ratioP1;P1;durP2;ratioP2;P2;SDS_P1;SDS_P2;PMS_P1;PMS_P2;Temp;Humidity;BMP_temperature;BMP_pressure;BME280_temperature;BME280_humidity;BME280_pressure;Samples;Min_cycle;Max_cycle;Signal;HPM_P1;HPM_P2
2023/01/16 00:00:48;;;;;;;;;;;;;;;16.72;64.01;99596.84;2113370;28;19927;-55
2023/01/16 00:01:50;;;;;;;;;;;;;;;16.71;63.91;99592.56;2113414;28;20398;-59
2023/01/16 00:02:52;;;;;;;;;;;;;;;16.72;63.85;99598.78;2113048;28;19938;-56
2023/01/16 00:03:54;;;;;;;;;;;;;;;16.70;63.82;99585.56;2115454;28;20525;-57
2023/01/16 00:04:57;;;;;;;;;;;;;;;16.71;63.72;99589.84;2113520;28;19928;-59
2023/01/16 00:05:58;;;;;;;;;;;;;;;16.70;63.85;99588.28;2113502;28;19997;-59
2023/01/16 00:07:01;;;;;;;;;;;;;;;16.72;64.00;99587.88;2103809;28;19932;-55
2023/01/16 00:08:03;;;;;;;;;;;;;;;16.70;63.98;99585.56;2103993;28;19939;-59
2023/01/16 00:09:05;;;;;;;;;;;;;;;16.70;63.87;99590.28;2114480;28;20387;-58
2023/01/16 00:10:09;;;;;;;;;;;;;;;16.70;63.85;99576.63;2112437;28;19935;-59
2023/01/16 00:11:12;;;;;;;;;;;;;;;16.70;63.97;99579.38;2111892;28;19934;-59
2023/01/16 00:12:14;;;;;;;;;;;;;;;16.69;63.81;99575.84;2112712;28;19932;-53
2023/01/16 00:13:16;;;;;;;;;;;;;;;16.69;64.01;99581.31;2115372;28;19927;-55
2023/01/16 00:14:19;;;;;;;;;;;;;;;16.69;64.05;99578.59;2113772;28;19930;-59
2023/01/16 00:15:20;;;;;;;;;;;;;;;16.69;64.02;99567.69;2113428;28;19928;-59
2023/01/16 00:16:23;;;;;;;;;;;;;;;16.69;64.12;99566.91;2113054;28;20414;-59
2023/01/16 00:17:25;;;;;;;;;;;;;;;16.69;64.01;99575.84;2113104;28;19931;-58
2023/01/16 00:18:27;;;;;;;;;;;;;;;16.69;63.80;99566.91;2114548;28;19928;-57
2023/01/16 00:19:29;;;;;;;;;;;;;;;16.69;64.02;99572.34;2112175;28;19928;-58
2023/01/16 00:20:31;;;;;;;;;;;;;;;16.68;64.00;99570.81;2113218;27;19928;-57
2023/01/16 00:21:33;;;;;;;;;;;;;;;16.69;63.81;99564.19;2116097;27;19924;-57
2023/01/16 00:22:36;;;;;;;;;;;;;;;16.68;63.98;99568.09;2115501;27;19927;-58
2023/01/16 00:23:37;;;;;;;;;;;;;;;16.67;64.00;99558.34;2113899;27;19973;-54
2023/01/16 00:24:40;;;;;;;;;;;;;;;16.68;63.96;99565.38;2116389;27;20379;-56
2023/01/16 00:25:43;;;;;;;;;;;;;;;16.68;64.02;99559.91;2116152;27;20638;-59
2023/01/16 00:26:46;;;;;;;;;;;;;;;16.68;63.67;99557.19;2117312;27;19924;-59
2023/01/16 00:27:48;;;;;;;;;;;;;;;16.67;63.99;99561.09;2114472;27;19938;-59
2023/01/16 00:28:50;;;;;;;;;;;;;;;16.66;63.96;99563.06;2114408;27;19928;-55
2023/01/16 00:29:52;;;;;;;;;;;;;;;16.67;64.06;99563.81;2114888;27;19939;-58
2023/01/16 00:30:54;;;;;;;;;;;;;;;16.67;63.45;99559.13;2115351;27;19924;-58
2023/01/16 00:31:56;;;;;;;;;;;;;;;16.67;63.92;99558.34;2115915;27;20383;-56
2023/01/16 00:32:58;;;;;;;;;;;;;;;16.67;63.90;99561.09;2115523;27;19987;-58
2023/01/16 00:34:00;;;;;;;;;;;;;;;16.67;64.09;99558.34;2115498;27;20359;-59
2023/01/16 00:35:03;;;;;;;;;;;;;;;16.66;64.13;99563.06;2113988;27;20287;-55
2023/01/16 00:36:06;;;;;;;;;;;;;;;16.67;64.01;99563.81;2114681;27;19967;-58
2023/01/16 00:37:08;;;;;;;;;;;;;;;16.66;63.78;99551.38;2114567;27;19927;-59
2023/01/16 00:38:10;;;;;;;;;;;;;;;16.66;63.75;99560.34;2115234;27;19927;-59
2023/01/16 00:39:12;;;;;;;;;;;;;;;16.66;64.22;99551.38;2106436;28;20012;-57
2023/01/16 00:40:14;;;;;;;;;;;;;;;16.66;64.21;99545.94;2105765;28;19928;-55
2023/01/16 00:41:18;;;;;;;;;;;;;;;16.66;64.01;99540.47;2113526;27;19932;-58
2023/01/16 00:42:20;;;;;;;;;;;;;;;16.65;64.03;99539.69;2115398;27;19976;-58
2023/01/16 00:43:22;;;;;;;;;;;;;;;16.65;63.70;99547.88;2116489;27;20179;-57
2023/01/16 00:44:24;;;;;;;;;;;;;;;16.65;63.97;99536.22;2114577;27;19928;-59
2023/01/16 00:45:27;;;;;;;;;;;;;;;16.64;64.12;99543.63;2114101;27;20379;-59
2023/01/16 00:46:29;;;;;;;;;;;;;;;16.66;64.02;99535.03;2114449;27;19939;-59
2023/01/16 00:47:32;;;;;;;;;;;;;;;16.64;63.93;99538.16;2113486;27;19950;-58
2023/01/16 00:48:33;;;;;;;;;;;;;;;16.64;64.04;99538.16;2114145;27;20413;-58
2023/01/16 00:49:36;;;;;;;;;;;;;;;16.64;64.02;99532.72;2113561;28;19932;-57
2023/01/16 00:50:37;;;;;;;;;;;;;;;16.64;63.88;99537.38;2113523;27;19934;-58
2023/01/16 00:51:40;;;;;;;;;;;;;;;16.65;64.03;99538.94;2114263;27;20328;-58
2023/01/16 00:52:41;;;;;;;;;;;;;;;16.63;64.00;99542.09;2114053;27;19942;-60
2023/01/16 00:53:44;;;;;;;;;;;;;;;16.63;63.89;99544.81;2114080;27;19965;-60
2023/01/16 00:54:46;;;;;;;;;;;;;;;16.63;63.94;99542.09;2115014;27;20468;-56
2023/01/16 00:55:48;;;;;;;;;;;;;;;16.64;64.02;99534.66;2114079;27;20306;-57
2023/01/16 00:56:52;;;;;;;;;;;;;;;16.63;64.14;99530.41;2114460;27;19931;-56
2023/01/16 00:57:54;;;;;;;;;;;;;;;16.63;64.03;99530.41;2114595;27;19939;-59
2023/01/16 00:58:56;;;;;;;;;;;;;;;16.63;63.73;99527.69;2114008;27;20596;-57
2023/01/16 00:59:58;;;;;;;;;;;;;;;16.64;63.98;99521.03;2115162;27;19934;-59
2023/01/16 01:01:00;;;;;;;;;;;;;;;16.63;64.13;99519.50;2116796;27;19982;-55
2023/01/16 01:02:02;;;;;;;;;;;;;;;16.62;64.01;99517.97;2115969;27;20481;-59
2023/01/16 01:03:05;;;;;;;;;;;;;;;16.63;64.01;99524.94;2114592;27;19927;-59
2023/01/16 01:04:07;;;;;;;;;;;;;;;16.63;63.85;99508.59;2115443;27;20088;-57
2023/01/16 01:05:09;;;;;;;;;;;;;;;16.62;64.14;99513.28;2114599;27;19932;-56
2023/01/16 01:06:11;;;;;;;;;;;;;;;16.62;63.88;99512.53;2114817;27;20585;-55
2023/01/16 01:07:14;;;;;;;;;;;;;;;16.62;64.00;99516.00;2113786;27;19939;-57
2023/01/16 01:08:16;;;;;;;;;;;;;;;16.63;64.11;99503.16;2113773;27;20743;-58
2023/01/16 01:09:18;;;;;;;;;;;;;;;16.62;63.73;99507.06;2114416;27;19927;-59
2023/01/16 01:10:20;;;;;;;;;;;;;;;16.62;63.95;99505.09;2113963;27;19939;-57
2023/01/16 01:11:22;;;;;;;;;;;;;;;16.61;64.12;99500.06;2113129;27;19927;-59
2023/01/16 01:12:26;;;;;;;;;;;;;;;16.62;63.84;99501.63;2114507;27;19931;-57
2023/01/16 01:13:28;;;;;;;;;;;;;;;16.61;63.91;99492.66;2117904;27;19935;-58
2023/01/16 01:14:31;;;;;;;;;;;;;;;16.61;64.11;99495.38;2114260;27;20457;-59
2023/01/16 01:15:32;;;;;;;;;;;;;;;16.62;63.99;99496.16;2113854;27;19984;-56
2023/01/16 01:16:35;;;;;;;;;;;;;;;16.62;63.87;99493.44;2114467;27;20398;-60
2023/01/16 01:17:36;;;;;;;;;;;;;;;16.61;64.04;99491.88;2114877;27;19965;-54
2023/01/16 01:18:39;;;;;;;;;;;;;;;16.61;64.02;99489.16;2114784;27;19928;-60
2023/01/16 01:19:41;;;;;;;;;;;;;;;16.60;64.03;99482.19;2114102;27;19940;-59
2023/01/16 01:20:43;;;;;;;;;;;;;;;16.61;63.75;99486.44;2115361;27;19928;-59
2023/01/16 01:21:45;;;;;;;;;;;;;;;16.61;63.99;99489.16;2114354;27;19932;-57
2023/01/16 01:22:47;;;;;;;;;;;;;;;16.60;63.71;99488.41;2116536;27;19930;-59
2023/01/16 01:23:49;;;;;;;;;;;;;;;16.60;64.12;99487.63;2116249;27;20050;-58
2023/01/16 01:24:52;;;;;;;;;;;;;;;16.60;63.66;99493.06;2114952;27;19927;-56
2023/01/16 01:25:53;;;;;;;;;;;;;;;16.59;64.09;99489.56;2114757;27;19980;-57
2023/01/16 01:26:56;;;;;;;;;;;;;;;16.61;64.09;99502.78;2113271;27;20335;-57
2023/01/16 01:27:59;;;;;;;;;;;;;;;16.59;64.00;99500.47;2114809;27;19924;-59
2023/01/16 01:29:02;;;;;;;;;;;;;;;16.60;63.99;99503.97;2114085;27;19927;-56
2023/01/16 01:30:04;;;;;;;;;;;;;;;16.60;63.68;99503.97;2114350;27;19932;-56
2023/01/16 01:31:07;;;;;;;;;;;;;;;16.60;63.76;99498.53;2116871;27;20103;-58
2023/01/16 01:32:09;;;;;;;;;;;;;;;16.60;64.08;99496.59;2114357;27;20026;-59
2023/01/16 01:33:11;;;;;;;;;;;;;;;16.59;64.00;99489.56;2114646;27;19935;-59
2023/01/16 01:34:13;;;;;;;;;;;;;;;16.59;63.99;99494.25;2114382;27;19931;-59
2023/01/16 01:35:19;;;;;;;;;;;;;;;16.58;64.05;99479.88;2116528;27;19935;-56
2023/01/16 01:36:20;;;;;;;;;;;;;;;16.59;63.95;99483.34;2115777;27;19931;-57
2023/01/16 01:37:23;;;;;;;;;;;;;;;16.59;63.83;99488.78;2114267;27;19972;-59
2023/01/16 01:38:25;;;;;;;;;;;;;;;16.59;63.96;99486.06;2114348;27;19931;-58
2023/01/16 01:39:27;;;;;;;;;;;;;;;16.59;63.91;99483.34;2113356;27;19958;-60
2023/01/16 01:40:29;;;;;;;;;;;;;;;16.58;64.02;99479.88;2114771;27;19998;-60
2023/01/16 01:41:32;;;;;;;;;;;;;;;16.59;64.00;99486.06;2114470;27;19928;-56
2023/01/16 01:42:43;;;;;;;;;;;;;;;16.58;63.70;99474.41;2116274;27;19936;-58
2023/01/16 01:43:48;;;;;;;;;;;;;;;16.58;64.13;99473.63;2116401;27;19976;-59
2023/01/16 01:44:51;;;;;;;;;;;;;;;16.58;63.88;99474.41;2113770;27;19927;-59
2023/01/16 01:45:55;;;;;;;;;;;;;;;16.58;63.90;99465.47;2113428;27;19931;-57
2023/01/16 01:46:57;;;;;;;;;;;;;;;16.58;64.01;99451.84;2113224;27;19931;-60
2023/01/16 01:48:04;;;;;;;;;;;;;;;16.57;64.03;99455.75;2115962;27;19935;-60
2023/01/16 01:49:10;;;;;;;;;;;;;;;16.57;63.92;99453.03;2114524;27;19927;-57
2023/01/16 01:50:16;;;;;;;;;;;;;;;16.57;64.08;99444.88;2114696;27;19956;-59
2023/01/16 01:51:20;;;;;;;;;;;;;;;16.57;63.84;99450.31;2115153;27;19923;-59
2023/01/16 01:52:23;;;;;;;;;;;;;;;16.57;63.84;99447.59;2116821;27;20299;-59
2023/01/16 01:53:27;;;;;;;;;;;;;;;16.57;63.87;99444.88;2115407;27;19938;-58
2023/01/16 01:54:32;;;;;;;;;;;;;;;16.56;63.93;99443.31;2115146;27;19928;-59
2023/01/16 01:55:34;;;;;;;;;;;;;;;16.56;63.87;99449.53;2112712;27;19931;-57
2023/01/16 01:56:40;;;;;;;;;;;;;;;16.56;63.80;99437.84;2113411;27;19934;-58
2023/01/16 01:57:44;;;;;;;;;;;;;;;16.56;64.00;99444.06;2116831;27;20303;-58
2023/01/16 01:58:50;;;;;;;;;;;;;;;16.55;63.82;99442.56;2113914;27;19934;-55
2023/01/16 01:59:58;;;;;;;;;;;;;;;16.56;63.77;99438.63;2113870;27;19935;-56
2023/01/16 02:01:01;;;;;;;;;;;;;;;16.55;63.78;99434.38;2116542;27;20383;-59
2023/01/16 02:02:04;;;;;;;;;;;;;;;16.56;64.01;99432.41;2114724;27;19928;-58
2023/01/16 02:03:08;;;;;;;;;;;;;;;16.55;63.83;99434.38;2115036;27;19928;-58
2023/01/16 02:04:13;;;;;;;;;;;;;;;16.55;64.04;99430.88;2115070;27;20298;-54
2023/01/16 02:05:19;;;;;;;;;;;;;;;16.55;63.97;99423.47;2114471;27;19932;-56
2023/01/16 02:06:25;;;;;;;;;;;;;;;16.54;63.96;99423.91;2115054;27;19928;-55
2023/01/16 02:07:28;;;;;;;;;;;;;;;16.55;64.03;99420.75;2114415;27;19927;-59
2023/01/16 02:08:31;;;;;;;;;;;;;;;16.55;63.92;99425.41;2113924;27;19928;-57
2023/01/16 02:09:34;;;;;;;;;;;;;;;16.55;63.96;99417.25;2114088;27;19924;-59
2023/01/16 02:10:38;;;;;;;;;;;;;;;16.55;63.80;99422.69;2116134;27;19946;-59
2023/01/16 02:11:44;;;;;;;;;;;;;;;16.55;64.06;99425.41;2113648;27;20306;-57
2023/01/16 02:12:45;;;;;;;;;;;;;;;16.54;64.00;99413.00;2114477;27;19939;-58
2023/01/16 02:13:49;;;;;;;;;;;;;;;16.54;63.99;99413.00;2115489;27;19927;-59
2023/01/16 02:14:51;;;;;;;;;;;;;;;16.55;64.00;99411.78;2113908;27;19989;-59
2023/01/16 02:20:14;;;;;;;;;;;;;;;16.53;63.78;99395.09;2113962;27;19924;-59
2023/01/16 02:21:28;;;;;;;;;;;;;;;16.52;63.75;99394.34;2115921;27;19934;-56
2023/01/16 02:22:40;;;;;;;;;;;;;;;16.53;63.97;99390.41;2115658;27;19928;-59
2023/01/16 02:24:01;;;;;;;;;;;;;;;16.53;63.79;99381.47;2114349;27;19927;-59
2023/01/16 02:25:17;;;;;;;;;;;;;;;16.52;63.96;99386.16;2113787;27;19935;-58
2023/01/16 02:26:33;;;;;;;;;;;;;;;16.53;63.94;99384.19;2083540;28;19928;-56
2023/01/16 02:27:43;;;;;;;;;;;;;;;16.53;64.01;99384.19;2113213;27;19932;-56
2023/01/16 02:28:58;;;;;;;;;;;;;;;16.53;63.83;99389.63;2113622;27;19931;-58
2023/01/16 02:30:19;;;;;;;;;;;;;;;16.52;63.83;99388.88;2115729;27;21245;-59
2023/01/16 02:31:32;;;;;;;;;;;;;;;16.52;64.02;99393.56;2115198;27;19973;-59
2023/01/16 02:32:42;;;;;;;;;;;;;;;16.52;63.79;99383.44;2113850;27;19932;-56
2023/01/16 02:33:51;;;;;;;;;;;;;;;16.51;64.05;99386.59;2113941;27;20329;-59
2023/01/16 02:35:04;;;;;;;;;;;;;;;16.51;64.05;99381.13;2113364;27;19931;-55
2023/01/16 02:36:10;;;;;;;;;;;;;;;16.51;64.01;99376.44;2115961;27;19928;-58
2023/01/16 02:37:18;;;;;;;;;;;;;;;16.51;64.00;99375.69;2114495;27;19924;-59
2023/01/16 02:38:26;;;;;;;;;;;;;;;16.51;63.84;99372.97;2115533;27;19932;-60
2023/01/16 02:39:36;;;;;;;;;;;;;;;16.51;63.74;99381.13;2113517;27;19928;-59
2023/01/16 02:40:42;;;;;;;;;;;;;;;16.51;63.96;99375.69;2115011;27;20366;-56
2023/01/16 02:41:48;;;;;;;;;;;;;;;16.51;63.73;99372.97;2113916;27;19928;-59
2023/01/16 02:42:54;;;;;;;;;;;;;;;16.50;64.03;99374.13;2114333;27;19928;-56
2023/01/16 02:43:58;;;;;;;;;;;;;;;16.51;64.02;99364.78;2113473;27;19931;-59
2023/01/16 02:45:02;;;;;;;;;;;;;;;16.50;63.67;99357.78;2117036;27;19927;-58
2023/01/16 02:46:09;;;;;;;;;;;;;;;16.50;63.97;99358.56;2113621;27;19934;-59
2023/01/16 02:47:15;;;;;;;;;;;;;;;16.50;63.92;99344.16;2113713;27;19966;-59
2023/01/16 02:48:24;;;;;;;;;;;;;;;16.50;64.11;99341.44;2113913;27;19928;-52
2023/01/16 02:49:29;;;;;;;;;;;;;;;16.49;63.70;99346.09;2113354;27;19928;-57
2023/01/16 02:50:35;;;;;;;;;;;;;;;16.50;64.06;99341.44;2113035;27;19989;-57
2023/01/16 02:51:40;;;;;;;;;;;;;;;16.49;63.94;99334.44;2113388;27;19932;-58
2023/01/16 02:52:46;;;;;;;;;;;;;;;16.49;63.82;99337.19;2114601;27;19931;-58
2023/01/16 02:53:52;;;;;;;;;;;;;;;16.50;63.96;99341.44;2113145;27;19928;-56
2023/01/16 02:54:58;;;;;;;;;;;;;;;16.49;63.66;99342.63;2112680;27;20038;-58
2023/01/16 02:56:08;;;;;;;;;;;;;;;16.49;63.84;99337.19;2113658;27;19939;-59
2023/01/16 02:57:13;;;;;;;;;;;;;;;16.48;63.87;99339.13;2115526;27;19928;-56
2023/01/16 02:58:17;;;;;;;;;;;;;;;16.48;63.68;99333.69;2113810;27;19954;-56
2023/01/16 02:59:20;;;;;;;;;;;;;;;16.48;64.01;99328.22;2114732;27;19934;-51
2023/01/16 03:00:22;;;;;;;;;;;;;;;16.49;63.77;99329.00;2114877;27;19932;-59
2023/01/16 03:01:24;;;;;;;;;;;;;;;16.47;63.91;99320.47;2114447;27;19928;-56
2023/01/16 03:02:27;;;;;;;;;;;;;;;16.49;63.78;99320.84;2115990;27;20375;-57
2023/01/16 03:03:37;;;;;;;;;;;;;;;16.48;63.98;99322.00;2112450;28;19975;-59
2023/01/16 03:04:48;;;;;;;;;;;;;;;16.47;63.80;99315.81;2115577;27;19927;-58
2023/01/16 03:05:53;;;;;;;;;;;;;;;16.48;63.74;99313.81;2113814;27;20658;-57
2023/01/16 03:07:02;;;;;;;;;;;;;;;16.47;63.98;99315.03;2113630;27;20383;-60
2023/01/16 03:08:21;;;;;;;;;;;;;;;16.47;63.99;99310.34;2114651;28;19927;-58
2023/01/16 03:09:34;;;;;;;;;;;;;;;16.48;63.87;99313.81;2113969;27;19946;-60
2023/01/16 03:10:47;;;;;;;;;;;;;;;16.49;63.78;99301.75;2117683;28;20305;-57
2023/01/16 03:11:57;;;;;;;;;;;;;;;16.47;63.77;99301.41;2112988;28;19935;-58
2023/01/16 03:13:07;;;;;;;;;;;;;;;16.47;63.96;99307.63;2112485;28;19932;-59
2023/01/16 03:14:25;;;;;;;;;;;;;;;16.47;63.79;99304.13;2114877;28;20318;-58
2023/01/16 03:15:31;;;;;;;;;;;;;;;16.46;63.77;99303.34;2112531;28;19924;-56
2023/01/16 03:16:37;;;;;;;;;;;;;;;16.47;63.75;99304.13;2113221;28;19935;-60
2023/01/16 03:17:45;;;;;;;;;;;;;;;16.46;63.79;99303.34;2113518;28;20125;-57
2023/01/16 03:18:51;;;;;;;;;;;;;;;16.47;63.66;99304.13;2114000;28;19939;-59
2023/01/16 03:19:58;;;;;;;;;;;;;;;16.46;63.98;99297.16;2114075;28;19931;-60
2023/01/16 03:21:04;;;;;;;;;;;;;;;16.46;64.02;99295.16;2113015;28;19927;-58
2023/01/16 03:22:10;;;;;;;;;;;;;;;16.46;63.92;99294.41;2114225;28;19932;-56
2023/01/16 03:23:15;;;;;;;;;;;;;;;16.46;63.72;99292.44;2114887;28;19928;-59
2023/01/16 03:24:25;;;;;;;;;;;;;;;16.46;63.96;99294.41;2115863;28;19939;-58
2023/01/16 03:25:29;;;;;;;;;;;;;;;16.46;63.61;99294.41;2113931;28;19931;-59
2023/01/16 03:26:36;;;;;;;;;;;;;;;16.46;63.87;99294.41;2113431;28;19928;-58
2023/01/16 03:27:44;;;;;;;;;;;;;;;16.45;63.70;99293.66;2114010;28;20476;-55
2023/01/16 03:28:52;;;;;;;;;;;;;;;16.46;63.76;99286.25;2116003;28;19939;-55
2023/01/16 03:29:59;;;;;;;;;;;;;;;16.45;63.68;99290.91;2112977;28;19935;-58
2023/01/16 03:31:05;;;;;;;;;;;;;;;16.46;63.98;99291.69;2114108;28;19928;-58
2023/01/16 03:32:10;;;;;;;;;;;;;;;16.45;63.69;99288.19;2116973;28;19924;-59
2023/01/16 03:33:19;;;;;;;;;;;;;;;16.45;63.96;99285.47;2113321;28;19927;-59
2023/01/16 03:34:27;;;;;;;;;;;;;;;16.45;63.85;99285.47;2113602;28;19975;-57
2023/01/16 03:35:31;;;;;;;;;;;;;;;16.44;63.87;99283.91;2111317;28;19931;-59
2023/01/16 03:36:36;;;;;;;;;;;;;;;16.43;63.70;99274.97;2115456;28;19931;-57
2023/01/16 03:37:40;;;;;;;;;;;;;;;16.44;64.07;99273.78;2113908;28;19931;-58
2023/01/16 03:38:46;;;;;;;;;;;;;;;16.44;63.84;99275.75;2114157;28;19938;-59
2023/01/16 03:39:51;;;;;;;;;;;;;;;16.42;63.75;99264.50;2112845;28;19927;-52
2023/01/16 03:40:56;;;;;;;;;;;;;;;16.43;63.62;99274.97;2113346;28;19927;-58
2023/01/16 03:42:01;;;;;;;;;;;;;;;16.43;63.64;99268.75;2114075;28;19934;-59
2023/01/16 03:43:06;;;;;;;;;;;;;;;16.42;63.99;99265.25;2112938;28;19927;-59
2023/01/16 03:44:11;;;;;;;;;;;;;;;16.44;63.72;99264.84;2114430;28;19950;-58
2023/01/16 03:45:17;;;;;;;;;;;;;;;16.43;63.91;99260.56;2115282;28;19928;-58
2023/01/16 03:46:20;;;;;;;;;;;;;;;16.42;64.02;99259.81;2113226;28;19935;-58
2023/01/16 03:47:25;;;;;;;;;;;;;;;16.42;63.94;99254.38;2113880;28;19935;-59
2023/01/16 03:48:32;;;;;;;;;;;;;;;16.43;63.95;99255.13;2113269;28;19961;-59
2023/01/16 03:49:38;;;;;;;;;;;;;;;16.42;63.75;99261.75;2114081;28;19932;-56
2023/01/16 03:50:42;;;;;;;;;;;;;;;16.42;63.83;99262.53;2112392;28;19928;-57
2023/01/16 03:51:46;;;;;;;;;;;;;;;16.41;63.72;99263.72;2112831;28;19932;-57
2023/01/16 03:52:51;;;;;;;;;;;;;;;16.41;63.91;99258.25;2114383;28;19939;-58
2023/01/16 03:53:57;;;;;;;;;;;;;;;16.42;63.77;99259.81;2114207;28;19928;-59
2023/01/16 03:55:06;;;;;;;;;;;;;;;16.41;63.73;99257.50;2113558;27;19935;-55
2023/01/16 03:56:12;;;;;;;;;;;;;;;16.41;63.98;99252.06;2113579;27;19940;-58
2023/01/16 03:57:27;;;;;;;;;;;;;;;16.41;63.73;99254.78;2115584;27;19942;-59
2023/01/16 03:58:31;;;;;;;;;;;;;;;16.41;63.66;99255.53;2116115;27;20330;-59
2023/01/16 03:59:35;;;;;;;;;;;;;;;16.41;63.77;99260.97;2115976;27;19928;-49
2023/01/16 04:00:38;;;;;;;;;;;;;;;16.40;63.72;99251.28;2115692;27;20235;-50
2023/01/16 04:01:46;;;;;;;;;;;;;;;16.41;63.96;99252.06;2115549;27;20042;-49
2023/01/16 04:02:51;;;;;;;;;;;;;;;16.41;63.94;99249.34;2113798;27;19938;-49
2023/01/16 04:03:59;;;;;;;;;;;;;;;16.41;63.90;99247.38;2114786;27;19927;-49
2023/01/16 04:05:06;;;;;;;;;;;;;;;16.40;63.70;99245.84;2114708;27;19931;-48
2023/01/16 04:06:11;;;;;;;;;;;;;;;16.39;63.62;99244.28;2115746;27;19932;-48
2023/01/16 04:07:17;;;;;;;;;;;;;;;16.41;63.97;99246.63;2116484;27;19932;-49
2023/01/16 04:08:23;;;;;;;;;;;;;;;16.41;63.82;99238.44;2116452;27;19923;-51
2023/01/16 04:09:26;;;;;;;;;;;;;;;16.40;63.83;99234.94;2115618;27;19935;-50
2023/01/16 04:10:31;;;;;;;;;;;;;;;16.39;63.73;99236.09;2115184;27;20305;-47
2023/01/16 04:11:33;;;;;;;;;;;;;;;16.40;63.61;99229.50;2113783;28;19940;-48
2023/01/16 04:12:38;;;;;;;;;;;;;;;16.39;63.72;99238.84;2113683;27;19939;-50
2023/01/16 04:13:41;;;;;;;;;;;;;;;16.39;63.69;99230.66;2114948;27;19934;-48
2023/01/16 04:14:45;;;;;;;;;;;;;;;16.40;63.84;99228.72;2115396;27;19927;-47
2023/01/16 04:15:48;;;;;;;;;;;;;;;16.39;63.68;99227.19;2116465;27;19927;-51
2023/01/16 04:16:51;;;;;;;;;;;;;;;16.40;63.84;99236.88;2115090;27;20331;-49
2023/01/16 04:17:53;;;;;;;;;;;;;;;16.39;63.67;99233.38;2115037;27;19934;-48
2023/01/16 04:18:58;;;;;;;;;;;;;;;16.39;63.96;99227.19;2114391;27;19931;-47
2023/01/16 04:19:59;;;;;;;;;;;;;;;16.39;63.68;99227.19;2116030;27;19927;-51
2023/01/16 04:21:04;;;;;;;;;;;;;;;16.38;63.74;99229.13;2113718;27;20357;-47
2023/01/16 04:22:06;;;;;;;;;;;;;;;16.39;63.90;99227.19;2113589;27;20330;-50
2023/01/16 04:23:09;;;;;;;;;;;;;;;16.38;63.76;99228.34;2114956;27;19935;-47
2023/01/16 04:24:13;;;;;;;;;;;;;;;16.38;63.69;99226.41;2116633;27;19935;-52
2023/01/16 04:25:17;;;;;;;;;;;;;;;16.39;63.74;99229.91;2117140;27;20315;-49
2023/01/16 04:26:19;;;;;;;;;;;;;;;16.38;63.59;99226.41;2115069;27;20320;-47
2023/01/16 04:27:21;;;;;;;;;;;;;;;16.38;63.90;99229.13;2113489;27;19935;-49
2023/01/16 04:28:23;;;;;;;;;;;;;;;16.37;63.72;99230.34;2114461;27;20383;-50
2023/01/16 04:29:26;;;;;;;;;;;;;;;16.37;63.93;99224.88;2114731;27;19934;-51
2023/01/16 04:30:28;;;;;;;;;;;;;;;16.37;63.89;99224.88;2114719;27;19935;-49
2023/01/16 04:31:30;;;;;;;;;;;;;;;16.37;63.72;99224.88;2114570;27;19934;-51
2023/01/16 04:32:32;;;;;;;;;;;;;;;16.36;63.77;99220.59;2116061;27;19935;-49
2023/01/16 04:33:34;;;;;;;;;;;;;;;16.37;63.81;99218.66;2115174;27;19932;-48
2023/01/16 04:34:37;;;;;;;;;;;;;;;16.36;63.79;99215.16;2115015;27;19974;-47
2023/01/16 04:35:40;;;;;;;;;;;;;;;16.37;63.65;99215.94;2116228;27;19932;-50
2023/01/16 04:36:42;;;;;;;;;;;;;;;16.37;63.58;99214.00;2113724;27;19927;-49
2023/01/16 04:37:44;;;;;;;;;;;;;;;16.37;63.72;99208.53;2117415;27;19927;-49
2023/01/16 04:38:47;;;;;;;;;;;;;;;16.36;63.70;99212.44;2114480;27;19928;-46
2023/01/16 04:39:49;;;;;;;;;;;;;;;16.36;63.68;99207.00;2116576;27;20443;-49
2023/01/16 04:40:53;;;;;;;;;;;;;;;16.36;63.59;99212.44;2115213;27;19942;-48
2023/01/16 04:41:55;;;;;;;;;;;;;;;16.36;63.91;99201.53;2114082;27;19934;-47
2023/01/16 04:42:57;;;;;;;;;;;;;;;16.37;63.80;99203.09;2114635;27;19931;-50
2023/01/16 04:43:59;;;;;;;;;;;;;;;16.36;63.68;99193.38;2115712;27;19980;-50
2023/01/16 04:45:01;;;;;;;;;;;;;;;16.35;63.86;99193.78;2114843;27;19935;-49
2023/01/16 04:46:03;;;;;;;;;;;;;;;16.35;63.62;99194.56;2117865;27;19945;-52
2023/01/16 04:47:06;;;;;;;;;;;;;;;16.35;63.71;99186.41;2113662;27;20393;-51
2023/01/16 04:48:07;;;;;;;;;;;;;;;16.36;63.65;99185.19;2113829;27;19928;-50
2023/01/16 04:49:10;;;;;;;;;;;;;;;16.36;63.87;99184.44;2115413;27;20033;-49
2023/01/16 04:50:13;;;;;;;;;;;;;;;16.36;63.81;99179.75;2118466;27;19939;-51
2023/01/16 04:51:16;;;;;;;;;;;;;;;16.35;63.64;99180.94;2103613;28;20930;-50
2023/01/16 04:52:17;;;;;;;;;;;;;;;16.35;63.57;99175.50;2106242;28;19928;-48
2023/01/16 04:53:20;;;;;;;;;;;;;;;16.35;63.81;99172.78;2113785;27;20920;-47
2023/01/16 04:54:22;;;;;;;;;;;;;;;16.36;63.85;99179.00;2116709;27;19928;-48
2023/01/16 04:55:24;;;;;;;;;;;;;;;16.35;63.61;99161.88;2113968;27;19928;-51
2023/01/16 04:56:27;;;;;;;;;;;;;;;16.35;63.82;99161.88;2114075;27;19935;-50
2023/01/16 04:57:28;;;;;;;;;;;;;;;16.34;63.61;99165.81;2115979;27;19928;-49
2023/01/16 04:58:31;;;;;;;;;;;;;;;16.34;63.67;99152.19;2115642;27;19928;-49
2023/01/16 04:59:33;;;;;;;;;;;;;;;16.34;63.72;99157.63;2118175;27;19934;-50
2023/01/16 05:00:35;;;;;;;;;;;;;;;16.34;63.64;99149.47;2113888;27;20384;-48
2023/01/16 05:01:37;;;;;;;;;;;;;;;16.34;63.66;99149.47;2113852;27;19976;-49
2023/01/16 05:02:40;;;;;;;;;;;;;;;16.34;63.61;99135.06;2114225;27;19932;-51
2023/01/16 05:03:41;;;;;;;;;;;;;;;16.34;63.62;99141.28;2116734;27;19927;-47
2023/01/16 05:04:44;;;;;;;;;;;;;;;16.34;63.72;99138.56;2114531;27;19927;-46
2023/01/16 05:05:47;;;;;;;;;;;;;;;16.33;63.69;99142.47;2114238;27;20409;-47
2023/01/16 05:06:49;;;;;;;;;;;;;;;16.33;63.61;99130.81;2115268;27;20014;-49
2023/01/16 05:09:09;;;;;;;;;;;;;;;16.33;64.19;99119.91;2112757;27;19924;-51
2023/01/16 05:10:10;;;;;;;;;;;;;;;16.33;63.57;99114.47;2113922;27;19927;-50
2023/01/16 05:11:13;;;;;;;;;;;;;;;16.33;63.52;99109.78;2115986;27;19935;-50
2023/01/16 05:12:14;;;;;;;;;;;;;;;16.32;63.67;99107.47;2114420;27;19938;-49
2023/01/16 05:13:17;;;;;;;;;;;;;;;16.32;63.61;99105.53;2115632;27;19962;-48
2023/01/16 05:14:18;;;;;;;;;;;;;;;16.32;63.63;99100.09;2115484;27;19953;-52
2023/01/16 05:15:21;;;;;;;;;;;;;;;16.32;63.79;99102.81;2114083;27;20382;-47
2023/01/16 05:16:22;;;;;;;;;;;;;;;16.31;63.63;99101.28;2115007;27;19931;-49
2023/01/16 05:17:26;;;;;;;;;;;;;;;16.31;63.57;99101.28;2113209;27;19928;-48
2023/01/16 05:18:28;;;;;;;;;;;;;;;16.32;63.57;99097.34;2116867;27;20010;-48
2023/01/16 05:19:30;;;;;;;;;;;;;;;16.31;63.40;99095.84;2116683;27;19927;-49
2023/01/16 05:20:32;;;;;;;;;;;;;;;16.32;63.30;99091.91;2116709;27;19928;-47
2023/01/16 05:21:36;;;;;;;;;;;;;;;16.32;63.43;99085.69;2118547;27;19935;-49
2023/01/16 05:22:37;;;;;;;;;;;;;;;16.32;63.67;99083.75;2114356;27;19924;-48
2023/01/16 05:23:40;;;;;;;;;;;;;;;16.29;63.56;99081.84;2116178;27;19928;-47
2023/01/16 05:24:41;;;;;;;;;;;;;;;16.31;63.85;99079.50;2113613;27;19934;-50
2023/01/16 05:25:44;;;;;;;;;;;;;;;16.33;63.76;99076.34;2116933;27;19932;-52
2023/01/16 05:26:46;;;;;;;;;;;;;;;16.32;63.89;99070.13;2114552;27;19928;-49
2023/01/16 05:27:52;;;;;;;;;;;;;;;16.32;63.76;99070.13;2117190;27;19923;-48
2023/01/16 05:28:53;;;;;;;;;;;;;;;16.31;63.76;99060.44;2113658;27;19927;-49
2023/01/16 05:29:56;;;;;;;;;;;;;;;16.31;63.84;99057.72;2119065;27;20387;-49
2023/01/16 05:30:57;;;;;;;;;;;;;;;16.31;63.62;99057.72;2117960;27;19928;-49
2023/01/16 05:32:00;;;;;;;;;;;;;;;16.32;63.66;99056.50;2115785;27;19967;-49
2023/01/16 05:33:04;;;;;;;;;;;;;;;16.32;63.84;99047.56;2114536;27;19928;-49
2023/01/16 05:34:07;;;;;;;;;;;;;;;16.32;63.88;99048.34;2113666;27;20398;-49
2023/01/16 05:35:09;;;;;;;;;;;;;;;16.32;63.77;99048.34;2118278;27;19935;-50
2023/01/16 05:36:11;;;;;;;;;;;;;;;16.31;63.74;99037.88;2116317;27;20391;-47
2023/01/16 05:37:14;;;;;;;;;;;;;;;16.33;63.79;99049.09;2114127;27;20884;-50
2023/01/16 05:38:17;;;;;;;;;;;;;;;16.32;63.89;99048.34;2112787;27;19931;-48
2023/01/16 05:39:18;;;;;;;;;;;;;;;16.31;63.77;99044.09;2113054;27;19935;-49
2023/01/16 05:40:21;;;;;;;;;;;;;;;16.31;64.10;99038.63;2116613;27;19942;-46